Time;durP1;ratioP1;P1;durP2;ratioP2;P2;SDS_P1;SDS_P2;PMS_P1;PMS_P2;Temp;Humidity;BMP_temperature;BMP_pressure;BME280_temperature;BME280_humidity;BME280_pressure;Samples;Min_cycle;Max_cycle;Signal;HPM_P1;HPM_P2
2023/07/04 00:00:39;;;;;;;0.40;0.28;;;10.80;99.90;;;;;;5042993;28;20561;-72
2023/07/04 00:03:05;;;;;;;0.00;0.00;;;10.70;99.90;;;;;;5041766;28;20434;-72
2023/07/04 00:05:31;;;;;;;0.95;0.70;;;10.60;99.90;;;;;;5041615;28;20645;-72
2023/07/04 00:07:57;;;;;;;0.00;0.00;;;10.60;99.90;;;;;;5041643;28;20386;-72
2023/07/04 00:10:23;;;;;;;0.00;0.00;;;10.50;99.90;;;;;;5041409;28;20092;-72
2023/07/04 00:12:48;;;;;;;0.00;0.00;;;11.40;99.90;;;;;;5041537;28;20096;-72
2023/07/04 00:15:14;;;;;;;0.28;0.28;;;10.50;99.90;;;;;;5041741;28;20441;-72
2023/07/04 00:17:42;;;;;;;0.38;0.22;;;10.50;99.90;;;;;;5042759;28;20049;-72
2023/07/04 00:20:10;;;;;;;0.00;0.00;;;10.50;99.90;;;;;;5045421;28;20048;-72
2023/07/04 00:22:36;;;;;;;6.93;1.08;;;10.50;99.90;;;;;;5045483;28;20093;-72
2023/07/04 00:25:04;;;;;;;0.00;0.00;;;10.50;99.90;;;;;;5044952;28;20079;-72
2023/07/04 00:27:33;;;;;;;0.88;0.22;;;10.40;99.90;;;;;;5045175;28;20056;-72
2023/07/04 00:29:59;;;;;;;0.15;0.15;;;10.40;99.90;;;;;;5045261;28;20456;-72
2023/07/04 00:32:26;;;;;;;0.00;0.00;;;10.30;99.90;;;;;;5044833;28;20107;-72
2023/07/04 00:34:52;;;;;;;0.00;0.00;;;10.30;99.90;;;;;;5044924;28;20937;-72
2023/07/04 00:37:21;;;;;;;0.00;0.00;;;10.20;99.90;;;;;;5044815;28;20061;-72
2023/07/04 00:39:48;;;;;;;0.00;0.00;;;10.20;99.90;;;;;;5044403;28;20076;-72
2023/07/04 00:42:14;;;;;;;0.00;0.00;;;10.10;99.90;;;;;;5044718;28;20048;-72
2023/07/04 00:44:47;;;;;;;0.00;0.00;;;10.10;99.90;;;;;;5044967;28;20357;-72
2023/07/04 00:47:21;;;;;;;0.00;0.00;;;10.00;99.90;;;;;;5044848;28;20450;-72
2023/07/04 00:49:57;;;;;;;0.00;0.00;;;10.00;99.90;;;;;;5044937;28;20435;-72
2023/07/04 00:52:33;;;;;;;0.00;0.00;;;10.00;99.90;;;;;;5044834;28;20064;-72
2023/07/04 00:55:01;;;;;;;1.55;0.70;;;10.00;99.90;;;;;;5045026;28;20492;-72
2023/07/04 00:57:37;;;;;;;0.00;0.00;;;10.00;99.90;;;;;;5045502;28;20058;-72
2023/07/04 01:00:19;;;;;;;0.05;0.03;;;10.00;99.90;;;;;;5044358;28;20099;-72
2023/07/04 01:02:48;;;;;;;0.05;0.05;;;10.10;99.90;;;;;;5044728;28;20462;-72
2023/07/04 01:05:28;;;;;;;0.00;0.00;;;10.00;99.90;;;;;;5044851;28;20471;-71
2023/07/04 01:08:05;;;;;;;0.00;0.00;;;10.00;99.90;;;;;;5044999;28;20557;-72
2023/07/04 01:10:42;;;;;;;0.00;0.00;;;10.00;99.90;;;;;;5044859;28;20037;-72
2023/07/04 01:13:28;;;;;;;0.85;0.85;;;10.00;99.90;;;;;;5043685;28;20088;-72
2023/07/04 01:15:53;;;;;;;2.55;0.52;;;9.90;99.90;;;;;;5044058;28;20099;-72
2023/07/04 01:18:20;;;;;;;0.00;0.00;;;9.90;99.90;;;;;;5044232;28;20963;-72
2023/07/04 01:20:48;;;;;;;0.10;0.10;;;9.80;99.90;;;;;;5044118;28;20048;-72
2023/07/04 01:23:49;;;;;;;0.75;0.40;;;9.80;99.90;;;;;;5044336;28;20049;-72
2023/07/04 01:26:37;;;;;;;0.00;0.00;;;9.80;99.90;;;;;;5041209;28;20053;-72
2023/07/04 01:29:05;;;;;;;0.50;0.28;;;9.90;99.90;;;;;;5043264;28;20450;-72
2023/07/04 01:31:35;;;;;;;0.00;0.00;;;9.90;99.90;;;;;;5043801;28;20041;-72
2023/07/04 01:34:03;;;;;;;0.00;0.00;;;9.90;99.90;;;;;;5043704;28;20076;-72
2023/07/04 01:36:32;;;;;;;0.00;0.00;;;9.80;99.90;;;;;;5043898;28;20383;-72
2023/07/04 01:38:59;;;;;;;0.00;0.00;;;9.80;99.90;;;;;;5043672;28;20431;-72
2023/07/04 01:41:24;;;;;;;0.20;0.05;;;9.80;99.90;;;;;;5043692;28;20377;-72
2023/07/04 01:43:59;;;;;;;0.47;0.35;;;9.80;99.90;;;;;;5044000;28;20048;-72
2023/07/04 01:46:25;;;;;;;6.03;1.00;;;9.80;99.90;;;;;;5043761;28;20471;-72
2023/07/04 01:48:51;;;;;;;0.00;0.00;;;9.70;99.90;;;;;;5043861;28;20091;-72
2023/07/04 01:51:25;;;;;;;0.00;0.00;;;9.80;99.90;;;;;;5043452;28;20480;-72
2023/07/04 01:53:51;;;;;;;0.00;0.00;;;10.00;99.90;;;;;;5043683;28;20124;-72
2023/07/04 01:56:17;;;;;;;1.55;0.30;;;10.00;99.90;;;;;;5043526;28;20479;-72
2023/07/04 01:58:42;;;;;;;0.00;0.00;;;10.10;99.90;;;;;;5042836;28;20037;-72
2023/07/04 02:01:08;;;;;;;0.00;0.00;;;10.20;99.90;;;;;;5043210;28;20048;-72
2023/07/04 02:03:34;;;;;;;12.02;1.75;;;10.20;99.90;;;;;;5043250;28;20052;-72
2023/07/04 02:06:01;;;;;;;0.75;0.43;;;10.20;99.90;;;;;;5043494;28;20059;-72
2023/07/04 02:08:26;;;;;;;0.00;0.00;;;10.20;99.90;;;;;;5043117;28;20041;-72
2023/07/04 02:10:52;;;;;;;0.10;0.10;;;10.30;99.90;;;;;;5043400;28;20564;-72
2023/07/04 02:13:18;;;;;;;0.15;0.15;;;10.20;99.90;;;;;;5042702;28;20037;-72
2023/07/04 02:15:43;;;;;;;0.00;0.00;;;11.30;99.90;;;;;;5043102;28;20049;-72
2023/07/04 02:18:09;;;;;;;0.82;0.65;;;10.10;99.90;;;;;;5042940;28;20053;-72
2023/07/04 02:20:35;;;;;;;0.00;0.00;;;10.20;99.90;;;;;;5043183;28;20036;-72
2023/07/04 02:23:00;;;;;;;0.00;0.00;;;10.20;99.90;;;;;;5042999;28;20052;-72
2023/07/04 02:25:26;;;;;;;0.00;0.00;;;10.30;99.90;;;;;;5042985;28;20118;-72
2023/07/04 02:27:52;;;;;;;0.00;0.00;;;10.40;99.90;;;;;;5042870;28;20041;-72
2023/07/04 02:30:17;;;;;;;0.57;0.43;;;10.50;99.90;;;;;;5042552;28;20102;-72
2023/07/04 02:32:43;;;;;;;0.25;0.25;;;10.60;99.90;;;;;;5042845;28;20090;-72
2023/07/04 02:35:09;;;;;;;0.65;0.65;;;10.50;99.90;;;;;;5043159;28;20072;-72
2023/07/04 02:37:34;;;;;;;1.75;0.55;;;10.60;99.90;;;;;;5042855;28;20083;-72
2023/07/04 02:40:00;;;;;;;0.00;0.00;;;10.60;99.90;;;;;;5042266;28;20048;-72
2023/07/04 02:42:26;;;;;;;0.10;0.10;;;10.60;99.90;;;;;;5041557;28;20438;-72
2023/07/04 02:44:52;;;;;;;2.03;0.80;;;10.60;99.90;;;;;;5042282;28;20041;-72
2023/07/04 02:47:18;;;;;;;0.00;0.00;;;10.60;99.90;;;;;;5042306;28;20045;-72
2023/07/04 02:49:44;;;;;;;0.40;0.20;;;11.90;99.90;;;;;;5042094;28;20063;-72
2023/07/04 02:52:10;;;;;;;0.20;0.20;;;10.70;99.90;;;;;;5042178;28;20037;-72
2023/07/04 02:54:35;;;;;;;0.32;0.28;;;10.70;99.90;;;;;;5042215;28;20045;-72
2023/07/04 02:57:01;;;;;;;0.28;0.20;;;10.80;99.90;;;;;;5042208;28;20411;-72
2023/07/04 02:59:27;;;;;;;0.30;0.22;;;10.90;99.90;;;;;;5042442;28;20416;-72
2023/07/04 03:01:53;;;;;;;0.00;0.00;;;11.00;99.90;;;;;;5042272;28;20116;-72
2023/07/04 03:04:19;;;;;;;0.00;0.00;;;11.10;99.90;;;;;;5042555;28;20127;-72
2023/07/04 03:06:45;;;;;;;0.32;0.32;;;11.20;99.90;;;;;;5042406;28;20063;-72
2023/07/04 03:09:11;;;;;;;0.70;0.32;;;11.20;99.90;;;;;;5041885;28;20411;-72
2023/07/04 03:11:36;;;;;;;0.10;0.10;;;11.30;99.90;;;;;;5041777;28;20433;-72
2023/07/04 03:14:02;;;;;;;0.50;0.50;;;11.40;99.90;;;;;;5041926;28;20051;-72
2023/07/04 03:16:28;;;;;;;0.00;0.00;;;11.50;99.90;;;;;;5042465;28;20048;-72
2023/07/04 03:18:54;;;;;;;0.35;0.35;;;11.60;99.90;;;;;;5041737;28;20095;-72
2023/07/04 03:21:20;;;;;;;0.93;0.90;;;11.60;99.90;;;;;;5042073;28;20096;-72
2023/07/04 03:23:46;;;;;;;2.08;1.73;;;11.60;99.90;;;;;;5041675;28;20466;-72
2023/07/04 03:26:12;;;;;;;1.13;1.05;;;11.70;99.90;;;;;;5042019;28;20120;-72
2023/07/04 03:28:38;;;;;;;1.10;0.22;;;11.70;99.90;;;;;;5042172;28;20411;-72
2023/07/04 03:31:04;;;;;;;0.10;0.10;;;11.70;99.90;;;;;;5042053;28;20458;-72
2023/07/04 03:33:30;;;;;;;0.30;0.20;;;11.80;99.90;;;;;;5041745;28;20102;-72
2023/07/04 03:35:57;;;;;;;2.38;1.75;;;11.80;99.90;;;;;;5042230;28;20045;-72
2023/07/04 03:38:23;;;;;;;0.00;0.00;;;11.80;99.90;;;;;;5041590;28;20166;-72
2023/07/04 03:40:49;;;;;;;0.28;0.15;;;11.80;99.90;;;;;;5041698;28;20045;-72
2023/07/04 03:43:15;;;;;;;1.10;0.22;;;11.80;99.90;;;;;;5041714;28;20530;-72
2023/07/04 03:45:44;;;;;;;0.10;0.10;;;11.80;99.90;;;;;;5042019;28;20128;-72
2023/07/04 03:48:10;;;;;;;0.00;0.00;;;11.80;99.90;;;;;;5041593;28;20041;-72
2023/07/04 03:50:37;;;;;;;0.50;0.32;;;11.80;99.90;;;;;;5041593;28;20419;-72
2023/07/04 03:53:02;;;;;;;1.20;0.63;;;11.80;99.90;;;;;;5043604;28;20600;-72
2023/07/04 03:55:28;;;;;;;1.45;0.55;;;11.70;99.90;;;;;;5045708;28;20403;-72
2023/07/04 03:57:54;;;;;;;0.00;0.00;;;11.80;99.90;;;;;;5045389;28;20132;-72
2023/07/04 04:00:19;;;;;;;1.23;0.73;;;11.80;99.90;;;;;;5046179;28;20041;-72
2023/07/04 04:02:45;;;;;;;0.95;0.55;;;12.00;99.90;;;;;;5045824;28;20059;-72
2023/07/04 04:05:12;;;;;;;0.38;0.32;;;12.00;99.90;;;;;;5046074;28;20048;-72
2023/07/04 04:07:37;;;;;;;0.30;0.15;;;12.00;99.90;;;;;;5045560;28;20045;-72
2023/07/04 04:10:21;;;;;;;0.20;0.20;;;12.00;99.90;;;;;;5025788;28;20044;-72
2023/07/04 04:13:05;;;;;;;0.00;0.00;;;12.00;99.90;;;;;;5037832;28;20056;-72
2023/07/04 04:15:50;;;;;;;0.32;0.10;;;11.90;99.90;;;;;;5045444;28;20044;-72
2023/07/04 04:18:15;;;;;;;0.20;0.20;;;11.90;99.90;;;;;;5044797;28;20043;-72
2023/07/04 04:20:41;;;;;;;0.00;0.00;;;11.90;99.90;;;;;;5045468;28;20411;-72
2023/07/04 04:23:07;;;;;;;0.10;0.10;;;11.90;99.90;;;;;;5045101;28;20040;-72
2023/07/04 04:25:38;;;;;;;0.70;0.20;;;12.00;99.90;;;;;;5045050;28;20120;-72
2023/07/04 04:28:04;;;;;;;0.20;0.13;;;11.90;99.90;;;;;;5045111;28;20059;-72
2023/07/04 04:30:30;;;;;;;0.20;0.20;;;11.90;99.90;;;;;;5035444;28;20081;-72
2023/07/04 04:32:55;;;;;;;0.45;0.20;;;11.90;99.90;;;;;;5034938;28;20400;-72
2023/07/04 04:35:21;;;;;;;0.20;0.20;;;11.90;99.90;;;;;;5045203;28;20045;-73
2023/07/04 04:37:47;;;;;;;0.77;0.47;;;11.90;99.90;;;;;;5044967;28;20124;-72
2023/07/04 04:40:13;;;;;;;0.00;0.00;;;12.10;99.90;;;;;;5044775;28;20057;-73
2023/07/04 04:42:39;;;;;;;0.10;0.10;;;12.20;99.90;;;;;;5045107;28;20107;-73
2023/07/04 04:45:07;;;;;;;0.60;0.60;;;12.40;99.90;;;;;;5044876;28;20055;-73
2023/07/04 04:47:33;;;;;;;0.00;0.00;;;12.70;99.90;;;;;;5044838;28;20063;-73
2023/07/04 04:50:02;;;;;;;0.90;0.20;;;13.00;99.90;;;;;;5045038;28;20057;-73
2023/07/04 04:52:32;;;;;;;0.00;0.00;;;13.00;99.90;;;;;;5044357;28;20048;-73
2023/07/04 04:55:00;;;;;;;0.00;0.00;;;13.00;99.90;;;;;;5044500;28;20617;-73
2023/07/04 04:57:28;;;;;;;0.20;0.20;;;12.90;99.90;;;;;;5044670;28;20477;-73
2023/07/04 04:59:59;;;;;;;0.20;0.20;;;13.00;99.90;;;;;;5044543;28;20044;-72
2023/07/04 05:02:25;;;;;;;1.30;1.00;;;12.80;99.90;;;;;;5042305;28;20053;-73
2023/07/04 05:04:51;;;;;;;0.45;0.45;;;12.80;99.90;;;;;;5041116;28;20126;-73
2023/07/04 05:07:18;;;;;;;0.52;0.50;;;12.80;99.90;;;;;;5042187;28;20180;-73
2023/07/04 05:09:43;;;;;;;0.03;0.03;;;12.80;99.90;;;;;;5041982;28;20044;-73
2023/07/04 05:12:09;;;;;;;0.00;0.00;;;12.80;99.90;;;;;;5042369;28;20053;-73
2023/07/04 05:14:35;;;;;;;0.43;0.40;;;12.90;99.90;;;;;;5041852;28;20044;-73
2023/07/04 05:17:00;;;;;;;0.10;0.00;;;12.90;99.90;;;;;;5041756;28;20045;-73
2023/07/04 05:19:26;;;;;;;0.10;0.05;;;13.00;99.90;;;;;;5041375;28;20496;-73
2023/07/04 05:21:52;;;;;;;0.25;0.25;;;13.00;99.90;;;;;;5041530;28;20088;-73
2023/07/04 05:24:17;;;;;;;11.80;1.17;;;13.10;99.90;;;;;;5041882;28;20088;-73
2023/07/04 05:26:43;;;;;;;0.00;0.00;;;13.20;99.90;;;;;;5043742;28;20067;-73
2023/07/04 05:29:09;;;;;;;0.05;0.05;;;13.20;99.90;;;;;;5043653;28;20137;-73
2023/07/04 05:31:35;;;;;;;0.00;0.00;;;13.40;99.90;;;;;;5043994;28;20050;-73
2023/07/04 05:34:00;;;;;;;0.00;0.00;;;13.40;99.90;;;;;;5044039;28;20053;-73
2023/07/04 05:36:32;;;;;;;0.98;0.20;;;13.40;99.90;;;;;;5044352;28;20048;-73
2023/07/04 05:39:00;;;;;;;0.80;0.73;;;13.40;99.90;;;;;;5043662;28;20052;-73
2023/07/04 05:41:28;;;;;;;0.60;0.50;;;13.50;99.90;;;;;;5043807;28;20554;-73
2023/07/04 05:43:55;;;;;;;3.20;2.13;;;13.60;99.90;;;;;;5043573;28;20041;-73
2023/07/04 05:46:21;;;;;;;0.00;0.00;;;13.70;99.90;;;;;;5043678;28;20045;-73
2023/07/04 05:48:47;;;;;;;1.38;1.05;;;13.80;99.90;;;;;;5043560;28;20045;-73
2023/07/04 05:51:15;;;;;;;0.10;0.10;;;13.90;99.90;;;;;;5043646;28;20044;-73
2023/07/04 05:53:43;;;;;;;0.20;0.10;;;14.00;99.90;;;;;;5043479;28;20049;-73
2023/07/04 05:56:29;;;;;;;1.27;1.00;;;14.10;99.90;;;;;;5043682;28;20052;-73
2023/07/04 05:58:57;;;;;;;0.15;0.10;;;14.10;99.90;;;;;;5043367;28;20045;-73
2023/07/04 06:01:28;;;;;;;1.80;0.98;;;14.20;99.90;;;;;;5037364;28;20041;-73
2023/07/04 06:03:55;;;;;;;0.00;0.00;;;14.20;99.90;;;;;;5041238;28;20044;-73
2023/07/04 06:06:27;;;;;;;0.03;0.03;;;14.10;99.90;;;;;;5037058;28;20045;-73
2023/07/04 06:08:55;;;;;;;0.00;0.00;;;14.40;99.90;;;;;;5040138;28;20084;-73
2023/07/04 06:11:22;;;;;;;0.00;0.00;;;14.30;99.90;;;;;;5031709;28;20049;-73
2023/07/04 06:13:48;;;;;;;0.00;0.00;;;14.40;99.90;;;;;;5033353;28;20094;-73
2023/07/04 06:16:14;;;;;;;2.50;0.65;;;14.30;99.90;;;;;;5033054;28;20495;-74
2023/07/04 06:18:40;;;;;;;0.22;0.20;;;14.30;99.90;;;;;;5031877;28;20047;-73
2023/07/04 06:21:09;;;;;;;0.45;0.40;;;14.40;99.90;;;;;;5032085;28;20069;-74
2023/07/04 06:23:35;;;;;;;0.52;0.40;;;14.60;99.90;;;;;;5031399;28;20132;-74
2023/07/04 06:26:01;;;;;;;0.10;0.10;;;15.10;99.90;;;;;;5032639;28;20495;-74
2023/07/04 06:28:27;;;;;;;0.00;0.00;;;15.10;99.90;;;;;;5030923;28;20068;-74
2023/07/04 06:30:52;;;;;;;0.00;0.00;;;15.20;99.90;;;;;;5023070;28;20110;-74
2023/07/04 06:33:18;;;;;;;0.20;0.17;;;15.30;1.00;;;;;;5022812;28;20045;-74
2023/07/04 06:35:43;;;;;;;0.00;0.00;;;15.40;99.90;;;;;;5023489;28;20056;-74
2023/07/04 06:38:10;;;;;;;0.22;0.22;;;15.30;99.90;;;;;;5022631;28;20687;-74
2023/07/04 06:40:36;;;;;;;5.28;0.32;;;15.20;1.00;;;;;;5023071;28;20069;-74
2023/07/04 06:43:03;;;;;;;0.00;0.00;;;15.20;99.90;;;;;;5022703;28;20041;-74
2023/07/04 06:45:31;;;;;;;0.10;0.08;;;15.40;1.00;;;;;;5022599;28;20052;-74
2023/07/04 06:47:57;;;;;;;0.00;0.00;;;15.50;99.90;;;;;;5022862;28;20502;-73
2023/07/04 06:50:23;;;;;;;0.00;0.00;;;15.90;65.80;;;;;;5022695;28;20041;-74
2023/07/04 06:52:48;;;;;;;0.00;0.00;;;16.20;99.90;;;;;;5022415;28;20438;-74
2023/07/04 06:55:14;;;;;;;0.10;0.10;;;16.40;99.90;;;;;;5022731;28;20563;-74
2023/07/04 06:57:40;;;;;;;1.02;0.47;;;16.40;99.90;;;;;;5022655;28;20049;-75
2023/07/04 07:00:06;;;;;;;0.00;0.00;;;16.50;1.00;;;;;;5022302;28;20041;-74
2023/07/04 07:02:32;;;;;;;0.00;0.00;;;16.30;99.90;;;;;;5022345;28;20045;-74
2023/07/04 07:04:58;;;;;;;0.00;0.00;;;16.30;1.00;;;;;;5038133;28;20056;-74
2023/07/04 07:07:24;;;;;;;1.35;0.63;;;16.30;18.50;;;;;;5022551;28;20041;-75
2023/07/04 07:09:49;;;;;;;0.17;0.17;;;16.40;31.40;;;;;;5022569;28;20049;-74
2023/07/04 07:12:15;;;;;;;0.00;0.00;;;16.70;1.00;;;;;;5022426;28;20061;-74
2023/07/04 07:14:41;;;;;;;1.48;0.77;;;17.00;99.90;;;;;;5022251;28;20459;-74
2023/07/04 07:17:07;;;;;;;0.47;0.38;;;17.00;1.00;;;;;;5021914;28;20428;-74
2023/07/04 07:19:33;;;;;;;0.13;0.10;;;17.20;99.90;;;;;;5019355;28;20132;-74
2023/07/04 07:22:02;;;;;;;1.65;0.88;;;17.20;99.90;;;;;;5020233;28;20152;-74
2023/07/04 07:24:29;;;;;;;0.10;0.10;;;17.10;99.90;;;;;;5019711;28;20045;-74
2023/07/04 07:26:55;;;;;;;0.00;0.00;;;17.10;99.90;;;;;;5019136;28;20041;-74
2023/07/04 07:29:21;;;;;;;2.83;1.58;;;17.20;73.10;;;;;;5020554;28;20136;-73
2023/07/04 07:31:49;;;;;;;0.00;0.00;;;17.30;1.00;;;;;;5019579;28;20124;-74
2023/07/04 07:34:15;;;;;;;2.50;1.35;;;17.30;1.00;;;;;;5019667;28;20061;-74
2023/07/04 07:36:42;;;;;;;2.13;0.38;;;17.40;99.90;;;;;;5019695;28;20053;-74
2023/07/04 07:39:10;;;;;;;0.38;0.38;;;17.30;99.90;;;;;;5019317;28;20038;-74
2023/07/04 07:41:40;;;;;;;0.00;0.00;;;17.50;99.90;;;;;;5019499;28;20041;-74
2023/07/04 07:44:08;;;;;;;0.20;0.20;;;17.70;99.90;;;;;;5019499;28;20124;-73
2023/07/04 07:46:35;;;;;;;0.10;0.08;;;17.80;99.90;;;;;;5019375;28;20046;-74
2023/07/04 07:49:00;;;;;;;0.00;0.00;;;18.00;99.90;;;;;;5019183;28;20053;-74
2023/07/04 07:51:27;;;;;;;0.30;0.30;;;18.10;99.90;;;;;;5019136;28;20087;-74
2023/07/04 07:53:55;;;;;;;0.10;0.10;;;18.20;99.90;;;;;;5027717;28;20127;-74
2023/07/04 07:56:22;;;;;;;0.90;0.32;;;18.20;99.90;;;;;;5027186;28;20077;-74
2023/07/04 07:58:48;;;;;;;0.75;0.60;;;18.30;99.90;;;;;;5026753;28;20037;-74
2023/07/04 08:01:17;;;;;;;0.00;0.00;;;18.30;98.80;;;;;;5029014;28;20045;-74
2023/07/04 08:03:43;;;;;;;0.00;0.00;;;18.30;9.00;;;;;;5029415;28;20059;-74
2023/07/04 08:06:33;;;;;;;0.32;0.30;;;18.20;1.00;;;;;;5027086;28;20474;-74
2023/07/04 08:09:01;;;;;;;0.00;0.00;;;18.10;1.00;;;;;;5027587;28;20057;-74
2023/07/04 08:11:28;;;;;;;0.80;0.75;;;18.10;15.70;;;;;;5026949;28;20743;-74
2023/07/04 08:13:54;;;;;;;1.40;0.57;;;18.20;3.50;;;;;;5027257;28;20174;-74
2023/07/04 08:16:24;;;;;;;0.00;0.00;;;18.30;1.00;;;;;;5027157;28;20045;-74
2023/07/04 08:18:50;;;;;;;0.17;0.13;;;18.10;1.00;;;;;;5028236;28;20049;-74
2023/07/04 08:21:16;;;;;;;0.88;0.75;;;18.20;1.00;;;;;;5026980;28;20419;-74
2023/07/04 08:23:43;;;;;;;0.10;0.10;;;18.30;22.60;;;;;;5027206;28;20629;-74
2023/07/04 08:26:15;;;;;;;0.00;0.00;;;18.30;1.00;;;;;;5029065;28;20060;-74
2023/07/04 08:28:40;;;;;;;0.00;0.00;;;18.30;1.00;;;;;;5027333;28;20048;-74
2023/07/04 08:31:06;;;;;;;0.10;0.03;;;18.30;1.00;;;;;;5024068;28;20470;-74
2023/07/04 08:33:32;;;;;;;2.05;0.60;;;18.40;1.00;;;;;;5023164;28;20483;-74
2023/07/04 08:35:59;;;;;;;0.10;0.10;;;18.50;99.90;;;;;;5017885;28;20053;-74
2023/07/04 08:38:26;;;;;;;0.10;0.10;;;18.60;99.90;;;;;;5019549;28;20148;-74
2023/07/04 08:40:52;;;;;;;0.08;0.08;;;18.80;99.90;;;;;;5021866;28;20111;-74
2023/07/04 08:43:36;;;;;;;0.85;0.43;;;19.00;99.90;;;;;;5022420;28;20528;-74
2023/07/04 08:46:08;;;;;;;0.00;0.00;;;19.30;99.90;;;;;;5022769;28;20045;-74
2023/07/04 08:48:34;;;;;;;0.93;0.75;;;19.40;99.90;;;;;;5041424;28;20077;-74
2023/07/04 08:51:02;;;;;;;0.28;0.28;;;19.40;99.90;;;;;;5042077;28;20049;-74
2023/07/04 08:53:29;;;;;;;0.43;0.38;;;19.40;99.90;;;;;;5042074;28;20059;-74
2023/07/04 08:56:31;;;;;;;0.00;0.00;;;19.30;99.90;;;;;;5042125;28;20049;-73
2023/07/04 08:59:08;;;;;;;1.73;0.28;;;19.50;99.90;;;;;;5021922;28;20093;-73
2023/07/04 09:02:04;;;;;;;0.30;0.30;;;19.60;99.90;;;;;;5022115;28;20057;-73
2023/07/04 09:04:40;;;;;;;0.57;0.30;;;19.50;97.80;;;;;;5022221;28;20042;-73
2023/07/04 09:07:32;;;;;;;1.75;0.35;;;19.70;99.90;;;;;;5030969;28;20471;-73
2023/07/04 09:10:09;;;;;;;2.55;1.10;;;19.70;99.90;;;;;;5041745;28;20131;-73
2023/07/04 09:12:37;;;;;;;4.65;0.43;;;19.60;69.20;;;;;;5042020;28;20299;-73
2023/07/04 09:15:36;;;;;;;1.40;0.50;;;20.00;81.70;;;;;;5041714;28;20045;-73
2023/07/04 09:18:08;;;;;;;0.22;0.13;;;19.70;1.00;;;;;;5036138;28;20468;-73
2023/07/04 09:20:42;;;;;;;1.50;0.63;;;19.70;1.00;;;;;;5041192;28;20519;-73
2023/07/04 09:23:14;;;;;;;0.00;0.00;;;19.50;1.00;;;;;;5041349;28;20065;-73
2023/07/04 09:25:41;;;;;;;0.30;0.30;;;20.20;21.60;;;;;;5041492;28;20515;-73
2023/07/04 09:28:07;;;;;;;0.08;0.08;;;21.00;1.00;;;;;;5040519;28;20052;-73
2023/07/04 09:30:33;;;;;;;13.05;1.38;;;21.30;1.00;;;;;;5041015;28;20047;-73
2023/07/04 09:32:59;;;;;;;0.10;0.10;;;21.60;1.00;;;;;;5041203;28;20048;-73
2023/07/04 09:35:25;;;;;;;0.10;0.10;;;22.30;24.10;;;;;;5041638;28;20394;-73
2023/07/04 09:38:08;;;;;;;0.00;0.00;;;23.30;90.30;;;;;;5041015;28;20037;-72
2023/07/04 09:40:45;;;;;;;0.00;0.00;;;23.50;1.00;;;;;;5041047;28;20044;-73
2023/07/04 09:43:23;;;;;;;0.00;0.00;;;23.60;99.90;;;;;;5041994;28;20483;-73
2023/07/04 09:45:49;;;;;;;0.82;0.63;;;24.00;99.90;;;;;;5041354;28;20117;-73
2023/07/04 09:48:23;;;;;;;3.78;1.25;;;23.20;99.90;;;;;;5041273;28;20503;-73
2023/07/04 09:50:49;;;;;;;1.05;0.85;;;23.60;99.90;;;;;;5040487;28;20439;-73
2023/07/04 09:53:19;;;;;;;1.38;0.90;;;23.70;99.90;;;;;;5041144;28;20055;-73
2023/07/04 09:56:00;;;;;;;0.20;0.20;;;23.50;99.90;;;;;;5041397;28;20049;-73
2023/07/04 09:58:28;;;;;;;0.00;0.00;;;23.30;99.90;;;;;;5040893;28;20049;-74
2023/07/04 10:01:15;;;;;;;0.32;0.28;;;23.10;99.90;;;;;;5040726;28;20072;-74
2023/07/04 10:03:42;;;;;;;0.77;0.40;;;22.90;99.90;;;;;;5040563;28;20056;-73
2023/07/04 10:06:09;;;;;;;1.63;0.15;;;22.50;99.90;;;;;;5040981;28;20049;-73
2023/07/04 10:08:53;;;;;;;1.17;0.30;;;22.20;99.90;;;;;;5039281;28;20102;-74
2023/07/04 10:11:28;;;;;;;0.10;0.10;;;21.20;99.90;;;;;;5050802;28;20502;-73
2023/07/04 10:14:07;;;;;;;0.45;0.43;;;20.70;99.90;;;;;;5040470;28;20511;-73
2023/07/04 10:16:33;;;;;;;6.28;0.98;;;21.10;99.90;;;;;;5040171;28;20175;-73
2023/07/04 10:19:20;;;;;;;0.20;0.17;;;21.10;99.90;;;;;;5039755;28;20094;-73
2023/07/04 10:21:50;;;;;;;0.22;0.20;;;21.30;99.90;;;;;;5020863;28;20049;-73
2023/07/04 10:24:24;;;;;;;0.40;0.35;;;21.70;99.90;;;;;;5018856;28;20411;-73
2023/07/04 10:26:54;;;;;;;0.20;0.10;;;22.00;99.90;;;;;;5019679;28;20622;-73
2023/07/04 10:29:30;;;;;;;0.10;0.10;;;22.40;99.90;;;;;;5029081;28;20098;-72
2023/07/04 10:32:01;;;;;;;0.50;0.50;;;22.80;99.90;;;;;;5028145;28;20060;-73
2023/07/04 10:34:28;;;;;;;0.38;0.38;;;23.00;99.90;;;;;;5020494;28;20049;-73
2023/07/04 10:36:56;;;;;;;0.13;0.10;;;23.40;99.90;;;;;;5019990;28;20073;-73
2023/07/04 10:39:22;;;;;;;0.55;0.40;;;23.00;99.90;;;;;;5029537;28;20092;-73
2023/07/04 10:42:11;;;;;;;1.80;0.85;;;22.70;65.00;;;;;;5039689;28;20392;-73
2023/07/04 10:44:39;;;;;;;0.00;0.00;;;22.30;78.50;;;;;;5040012;28;20044;-72
2023/07/04 10:47:11;;;;;;;0.20;0.20;;;21.80;12.70;;;;;;5039791;28;20514;-72
2023/07/04 10:49:51;;;;;;;0.00;0.00;;;21.30;14.90;;;;;;5040585;28;20424;-71
2023/07/04 10:52:25;;;;;;;0.55;0.45;;;21.50;40.30;;;;;;5042017;28;20151;-71
2023/07/04 10:54:51;;;;;;;0.32;0.10;;;21.70;80.70;;;;;;5042092;28;20053;-71
2023/07/04 10:57:32;;;;;;;0.15;0.10;;;21.40;9.90;;;;;;5041582;28;20052;-71
2023/07/04 11:00:07;;;;;;;1.65;0.68;;;21.10;7.60;;;;;;5041895;28;20056;-71
2023/07/04 11:02:51;;;;;;;0.13;0.13;;;20.80;1.00;;;;;;5040929;28;20076;-71
2023/07/04 11:05:28;;;;;;;0.85;0.55;;;20.60;6.20;;;;;;5041877;28;20123;-71
2023/07/04 11:07:54;;;;;;;0.20;0.20;;;20.70;28.30;;;;;;5041528;28;20045;-71
2023/07/04 11:10:24;;;;;;;0.00;0.00;;;21.00;96.40;;;;;;5041490;28;20113;-71
2023/07/04 11:12:53;;;;;;;1.92;0.50;;;20.90;39.20;;;;;;5041649;28;20404;-71
2023/07/04 11:15:36;;;;;;;0.10;0.10;;;21.00;22.80;;;;;;5041883;28;20404;-71
2023/07/04 11:18:02;;;;;;;0.10;0.10;;;20.90;25.90;;;;;;5041459;28;20063;-71
2023/07/04 11:20:38;;;;;;;1.70;0.88;;;21.00;17.50;;;;;;5040809;28;20423;-71
2023/07/04 11:23:13;;;;;;;0.20;0.20;;;21.50;99.90;;;;;;5039777;28;20045;-71
2023/07/04 11:25:42;;;;;;;0.08;0.08;;;22.10;44.80;;;;;;5040038;28;20080;-71
2023/07/04 11:28:33;;;;;;;0.63;0.50;;;22.10;34.10;;;;;;5041373;28;20128;-71
2023/07/04 11:31:11;;;;;;;0.30;0.30;;;22.50;83.00;;;;;;5038332;28;20077;-71
2023/07/04 11:34:02;;;;;;;0.00;0.00;;;22.40;43.10;;;;;;5041598;28;20504;-71
2023/07/04 11:36:53;;;;;;;0.03;0.03;;;23.00;88.20;;;;;;5041235;28;20407;-71
2023/07/04 11:39:29;;;;;;;0.00;0.00;;;23.80;1.00;;;;;;5040179;28;20045;-71
2023/07/04 11:41:55;;;;;;;7.78;1.20;;;24.00;1.00;;;;;;5039621;28;20500;-74
2023/07/04 11:44:29;;;;;;;0.00;0.00;;;24.10;1.00;;;;;;5039276;28;20086;-73
2023/07/04 11:47:05;;;;;;;0.28;0.22;;;24.40;1.00;;;;;;5039667;28;20052;-71
2023/07/04 11:49:33;;;;;;;0.00;0.00;;;23.40;99.90;;;;;;5039571;28;20049;-71
2023/07/04 11:52:05;;;;;;;1.25;0.40;;;22.90;99.90;;;;;;5036134;28;20045;-72
2023/07/04 11:54:32;;;;;;;1.27;0.65;;;22.40;99.90;;;;;;5033261;28;20045;-72
2023/07/04 11:56:58;;;;;;;0.03;0.03;;;22.40;99.90;;;;;;5054991;28;20055;-71
2023/07/04 11:59:25;;;;;;;24.40;2.55;;;23.50;1.00;;;;;;5038928;28;20487;-71
2023/07/04 12:01:51;;;;;;;0.40;0.32;;;23.90;1.00;;;;;;5039126;28;20037;-71
2023/07/04 12:04:43;;;;;;;2.35;1.08;;;24.60;1.00;;;;;;5039385;28;20052;-72
2023/07/04 12:07:28;;;;;;;0.00;0.00;;;24.80;1.00;;;;;;5041250;28;20503;-72
2023/07/04 12:10:12;;;;;;;0.53;0.37;;;23.70;1.00;;;;;;5041590;28;20041;-71
2023/07/04 12:12:41;;;;;;;0.05;0.05;;;22.80;99.90;;;;;;5041561;28;20331;-71
2023/07/04 12:15:20;;;;;;;0.10;0.10;;;22.20;99.90;;;;;;5045006;28;20076;-71
2023/07/04 12:17:48;;;;;;;2.03;0.47;;;21.80;99.90;;;;;;5045839;28;20167;-71
2023/07/04 12:20:19;;;;;;;0.60;0.47;;;22.20;99.90;;;;;;5045562;28;20060;-71
2023/07/04 12:22:51;;;;;;;0.25;0.17;;;22.10;99.90;;;;;;5045642;28;20049;-71
2023/07/04 12:25:26;;;;;;;0.50;0.43;;;21.60;99.90;;;;;;5045570;28;20055;-71
2023/07/04 12:27:56;;;;;;;0.00;0.00;;;21.40;99.90;;;;;;5044773;28;20045;-71
2023/07/04 12:30:22;;;;;;;0.25;0.25;;;21.30;99.90;;;;;;5044942;28;20472;-71
2023/07/04 12:32:51;;;;;;;0.30;0.22;;;21.20;99.90;;;;;;5044978;28;20156;-72
2023/07/04 12:35:25;;;;;;;0.25;0.25;;;21.40;99.90;;;;;;5045026;28;20136;-71
2023/07/04 12:37:55;;;;;;;1.77;0.40;;;21.40;99.90;;;;;;5045101;28;20407;-71
2023/07/04 12:40:25;;;;;;;0.08;0.08;;;21.20;99.90;;;;;;5044204;28;20426;-71
2023/07/04 12:42:52;;;;;;;0.00;0.00;;;20.90;99.90;;;;;;5042538;28;20049;-71
2023/07/04 12:45:24;;;;;;;0.13;0.05;;;20.60;99.90;;;;;;5042396;28;20056;-71
2023/07/04 12:47:52;;;;;;;0.40;0.40;;;20.60;99.90;;;;;;5042296;28;20064;-71
2023/07/04 12:50:18;;;;;;;0.25;0.10;;;21.10;99.90;;;;;;5041073;28;20411;-71
2023/07/04 12:52:46;;;;;;;0.75;0.73;;;22.10;99.90;;;;;;5027685;28;20049;-72
2023/07/04 12:55:34;;;;;;;0.00;0.00;;;22.20;99.90;;;;;;5030001;28;20732;-72
2023/07/04 12:58:03;;;;;;;0.00;0.00;;;21.90;99.90;;;;;;5030134;28;20560;-72
2023/07/04 13:00:41;;;;;;;0.00;0.00;;;21.90;99.90;;;;;;5029580;28;20053;-71